Aeroporto :
LOGIN :

Iscrizione | Disclaimer

   EN    FR    IT 

 










Sommario :    VFR   VFR Marginale   IFR   IFR Intensivo   IFR Molto Intensivo
Visibilità : 
Base nubi : 
>= 8 km
>= 3000ft
5 / 8 km
1000 / 3000 ft
1500m / 5 km
500 / 1000 ft
800 / 1500m
200 / 500 ft
< 800m
< 200 ft
Simboli :   Temporali  Nebbia  Neve Forte  Precipitazioni Forti  Vento > 20 kt
SIGMETs :   Varie  Temporali  Ghiacco  Turbolenza  Onda orograficha  Ceneri Vulcaniche






- Altitudine del aeroporto : 32 ft
- Codice IATA : LKZ


EGUL - RAF Lakenheath

ULTIMO METAR :
  • 081856Z AUTO 13006KT 9999 CLR 16/07 A3021 RMK AO2 SLP234 T01630067 $

METARs OBSOLETI :
  • 081756Z AUTO 10009KT 9999 FEW070 18/07 A3020 RMK AO2 SLP230 T01840069 10224 20184 55001 $
  • 081656Z AUTO 13005KT 9999 BKN060 21/08 A3019 RMK AO2 SLP227 T02080078 $

TAF AMD TAF EGUL
Valido dal 08 a 16 ore il 09 a 20 ore UTC


081650Z 0816/0920 VRB06KT 9999 SCT040 QNH3020INS
BECMG 0903/0904 VRB06KT 8000 BR SCT030 QNH3026INS
BECMG 0908/0909 02012KT 9999 NSW SCT030 QNH3030INS TX22/0817Z TN08/0905Z LAST NO AMDS AFT 0817 NEXT 0906



MetMap, La meteo Aeronautica in un colpo d'occhio ! - Copyright ORBIFLY Dicembre 2007 - Disclaimer

ORBIFLY MET'MAP TEAM :

Programmazione e sviluppo : Alexandra Zaïnal
Concezione : Baudouin d'Aumeries
Aiuto per la programmazione : Marc-Olivier Méhu
Supporto tecnico e logistico : Manuel Goepfert
Aiuto per la traduzione : Arnaldo La Scala

Contatto : metmap@orbifly.com




FONTI E CREDITI :

   NOAA